Time;durP1;ratioP1;P1;durP2;ratioP2;P2;SDS_P1;SDS_P2;PMS_P1;PMS_P2;Temp;Humidity;BMP_temperature;BMP_pressure;BME280_temperature;BME280_humidity;BME280_pressure;Samples;Min_cycle;Max_cycle;Signal;HPM_P1;HPM_P2
2022/09/02 00:01:39;;;;;;;6.70;2.17;;;15.50;16.50;;;;;;5072685;28;20446;-83
2022/09/02 00:04:08;;;;;;;7.07;2.70;;;15.40;16.40;;;;;;5072212;28;20871;-83
2022/09/02 00:06:36;;;;;;;4.83;1.83;;;15.20;16.80;;;;;;5072705;28;20451;-83
2022/09/02 00:09:04;;;;;;;4.80;1.70;;;15.40;17.00;;;;;;5073229;28;20447;-83
2022/09/02 00:11:33;;;;;;;5.00;1.50;;;15.40;16.40;;;;;;5072893;28;20885;-83
2022/09/02 00:14:02;;;;;;;4.60;1.70;;;15.40;16.40;;;;;;5072290;28;20482;-83
2022/09/02 00:16:32;;;;;;;5.70;1.70;;;15.50;16.50;;;;;;5072360;28;20461;-84
2022/09/02 00:18:59;;;;;;;5.20;1.57;;;15.70;16.60;;;;;;5074958;28;20549;-84
2022/09/02 00:21:26;;;;;;;6.20;1.90;;;15.70;16.60;;;;;;5076514;28;20828;-84
2022/09/02 00:23:53;;;;;;;4.60;1.50;;;15.70;16.30;;;;;;5076833;28;20481;-85
2022/09/02 00:26:21;;;;;;;5.53;1.80;;;15.60;16.50;;;;;;5075893;28;20549;-83
2022/09/02 00:28:48;;;;;;;6.83;1.73;;;15.50;16.50;;;;;;5076259;28;20515;-83
2022/09/02 00:31:15;;;;;;;4.97;1.80;;;15.60;16.50;;;;;;5075812;28;20481;-83
2022/09/02 00:33:43;;;;;;;4.40;1.43;;;15.40;16.40;;;;;;5077024;28;21048;-83
2022/09/02 00:36:10;;;;;;;9.30;2.20;;;15.50;16.50;;;;;;5075922;28;20454;-83
2022/09/02 00:38:38;;;;;;;7.13;2.10;;;15.40;16.40;;;;;;5076377;28;20446;-83
2022/09/02 00:41:08;;;;;;;8.57;1.80;;;15.50;16.50;;;;;;5077410;28;20454;-83
2022/09/02 00:43:42;;;;;;;11.00;1.90;;;15.40;16.40;;;;;;5075668;28;20474;-83
2022/09/02 00:46:09;;;;;;;7.03;1.90;;;15.30;16.90;;;;;;5075626;28;20454;-83
2022/09/02 00:48:39;;;;;;;6.53;1.93;;;15.40;16.50;;;;;;5075916;28;20458;-83
2022/09/02 00:51:07;;;;;;;4.60;2.10;;;15.40;16.40;;;;;;5075589;28;21073;-84
2022/09/02 00:53:38;;;;;;;5.27;2.00;;;15.30;16.90;;;;;;5075678;28;20481;-83
2022/09/02 00:56:09;;;;;;;5.57;1.70;;;15.20;17.70;;;;;;5077894;28;20457;-85
2022/09/02 00:58:37;;;;;;;7.30;1.90;;;15.20;17.60;;;;;;5076588;28;20500;-83
2022/09/02 01:01:04;;;;;;;6.87;2.03;;;15.10;18.20;;;;;;5075848;28;20454;-83
2022/09/02 01:03:33;;;;;;;9.00;2.33;;;15.00;18.40;;;;;;5075221;28;20489;-84
2022/09/02 01:06:01;;;;;;;5.37;2.37;;;15.10;18.30;;;;;;5074921;28;20458;-84
2022/09/02 01:08:34;;;;;;;6.57;1.90;;;15.00;18.50;;;;;;5075690;28;20553;-83
2022/09/02 01:11:04;;;;;;;5.50;1.70;;;15.10;18.60;;;;;;5075752;28;20478;-83
2022/09/02 01:13:35;;;;;;;5.73;1.70;;;15.10;18.80;;;;;;5075410;28;20481;-83
2022/09/02 01:16:09;;;;;;;5.27;1.90;;;15.10;18.60;;;;;;5074869;28;20466;-83
2022/09/02 01:18:37;;;;;;;4.93;1.63;;;15.10;19.30;;;;;;5075283;28;20520;-83
2022/09/02 01:21:05;;;;;;;5.73;2.00;;;15.30;19.30;;;;;;5075534;28;20454;-84
2022/09/02 01:23:34;;;;;;;7.10;1.83;;;15.20;19.20;;;;;;5074938;28;20474;-83
2022/09/02 01:26:01;;;;;;;5.03;1.87;;;15.20;18.80;;;;;;5074134;28;20457;-83
2022/09/02 01:28:28;;;;;;;5.53;1.83;;;15.20;19.30;;;;;;5075414;28;20458;-83
2022/09/02 01:30:58;;;;;;;6.43;2.20;;;15.20;19.50;;;;;;5076903;28;20450;-86
2022/09/02 01:33:24;;;;;;;4.90;1.70;;;15.20;19.60;;;;;;5075475;28;20477;-83
2022/09/02 01:35:51;;;;;;;6.67;1.90;;;15.10;19.50;;;;;;5074773;28;20838;-83
2022/09/02 01:38:18;;;;;;;6.60;1.63;;;15.10;19.40;;;;;;5076726;28;20516;-84
2022/09/02 01:40:47;;;;;;;6.40;1.60;;;15.00;19.10;;;;;;5074886;28;20461;-83
2022/09/02 01:43:16;;;;;;;10.27;2.30;;;15.20;19.00;;;;;;5074657;28;20474;-84
2022/09/02 01:45:44;;;;;;;7.33;1.97;;;15.10;19.10;;;;;;5074460;28;20462;-83
2022/09/02 01:48:12;;;;;;;6.03;2.33;;;15.10;20.00;;;;;;5074964;28;20461;-83
2022/09/02 01:50:41;;;;;;;6.83;2.00;;;15.00;20.70;;;;;;5074779;28;20454;-83
2022/09/02 01:53:08;;;;;;;4.40;1.60;;;14.90;22.20;;;;;;5074340;28;21049;-83
2022/09/02 01:55:35;;;;;;;4.83;1.90;;;14.80;23.30;;;;;;5074470;28;20901;-83
2022/09/02 01:58:03;;;;;;;5.13;2.00;;;14.80;23.30;;;;;;5074510;28;20520;-83
2022/09/02 02:00:30;;;;;;;5.20;1.80;;;14.70;23.20;;;;;;5074624;28;20836;-83
2022/09/02 02:02:57;;;;;;;7.20;4.00;;;14.50;23.20;;;;;;5074394;28;20470;-84
2022/09/02 02:05:24;;;;;;;5.27;1.70;;;14.50;24.50;;;;;;5073963;28;20533;-83
2022/09/02 02:07:51;;;;;;;7.30;1.80;;;14.50;24.80;;;;;;5074583;28;20833;-83
2022/09/02 02:10:20;;;;;;;8.43;2.10;;;14.20;25.20;;;;;;5074444;28;20446;-83
2022/09/02 02:12:47;;;;;;;6.50;2.13;;;14.10;26.00;;;;;;5074004;28;20478;-83
2022/09/02 02:15:17;;;;;;;6.27;2.27;;;14.10;26.80;;;;;;5073863;28;20447;-83
2022/09/02 02:17:44;;;;;;;4.27;1.73;;;13.90;28.10;;;;;;5074450;28;20826;-84
2022/09/02 02:20:13;;;;;;;5.07;1.83;;;13.80;28.70;;;;;;5074078;28;20962;-83
2022/09/02 02:22:41;;;;;;;4.87;2.23;;;13.60;28.90;;;;;;5074097;28;20523;-83
2022/09/02 02:25:09;;;;;;;5.27;1.90;;;13.70;29.70;;;;;;5073910;28;20454;-83
2022/09/02 02:27:36;;;;;;;6.03;2.43;;;13.50;30.00;;;;;;5073295;28;20447;-83
2022/09/02 02:30:03;;;;;;;5.20;1.93;;;13.40;32.40;;;;;;5073944;28;20477;-83
2022/09/02 02:32:31;;;;;;;8.63;1.90;;;13.30;31.70;;;;;;5073612;28;20513;-83
2022/09/02 02:34:58;;;;;;;12.13;2.30;;;13.30;32.10;;;;;;5072819;28;20900;-83
2022/09/02 02:37:25;;;;;;;5.77;2.10;;;13.20;33.30;;;;;;5072828;28;20442;-83
2022/09/02 02:39:52;;;;;;;5.83;2.47;;;13.30;34.10;;;;;;5074035;28;20478;-83
2022/09/02 02:42:19;;;;;;;5.20;2.20;;;13.20;34.30;;;;;;5072780;28;20823;-83
2022/09/02 02:44:46;;;;;;;4.73;2.10;;;13.30;34.00;;;;;;5073217;28;20508;-83
2022/09/02 02:47:13;;;;;;;5.70;2.50;;;13.20;34.40;;;;;;5073788;28;20458;-83
2022/09/02 02:49:43;;;;;;;5.23;2.60;;;13.30;35.30;;;;;;5073575;28;20450;-83
2022/09/02 02:52:11;;;;;;;4.77;2.03;;;13.30;34.00;;;;;;5073256;28;20474;-83
2022/09/02 02:54:39;;;;;;;7.20;2.47;;;13.30;34.30;;;;;;5073155;28;20470;-83
2022/09/02 02:57:06;;;;;;;5.07;2.17;;;13.30;33.10;;;;;;5072921;28;20457;-83
2022/09/02 02:59:35;;;;;;;5.17;2.27;;;13.30;34.00;;;;;;5073677;28;20458;-84
2022/09/02 03:02:03;;;;;;;5.30;2.27;;;13.40;33.20;;;;;;5073623;28;20446;-83
2022/09/02 03:04:30;;;;;;;6.20;2.00;;;13.40;32.60;;;;;;5072949;28;20557;-83
2022/09/02 03:06:58;;;;;;;5.70;2.17;;;13.50;33.20;;;;;;5073438;28;20454;-83
2022/09/02 03:09:24;;;;;;;5.80;2.27;;;13.60;32.30;;;;;;5073361;28;20462;-83
2022/09/02 03:11:51;;;;;;;6.70;2.70;;;13.50;33.40;;;;;;5072703;28;20501;-83
2022/09/02 03:14:18;;;;;;;6.57;2.23;;;13.50;33.30;;;;;;5072979;28;20497;-83
2022/09/02 03:16:45;;;;;;;8.73;2.50;;;13.60;33.90;;;;;;5073654;28;20493;-83
2022/09/02 03:19:13;;;;;;;6.50;2.53;;;13.70;34.30;;;;;;5073504;28;20450;-83
2022/09/02 03:21:40;;;;;;;6.60;2.10;;;13.60;33.90;;;;;;5073217;28;20482;-83
2022/09/02 03:24:09;;;;;;;6.00;2.13;;;13.50;35.90;;;;;;5072736;28;20517;-82
2022/09/02 03:26:36;;;;;;;8.00;2.37;;;13.40;33.80;;;;;;5072241;28;20454;-82
2022/09/02 03:29:04;;;;;;;5.07;1.97;;;13.40;34.50;;;;;;5073009;28;20461;-83
2022/09/02 03:31:31;;;;;;;4.80;2.30;;;13.40;35.70;;;;;;5073140;28;20465;-83
2022/09/02 03:33:58;;;;;;;8.10;2.47;;;13.30;38.10;;;;;;5072669;28;20481;-82
2022/09/02 03:36:26;;;;;;;7.40;2.20;;;13.50;38.70;;;;;;5072397;28;20851;-83
2022/09/02 03:38:54;;;;;;;7.63;2.30;;;13.30;38.60;;;;;;5073196;28;20455;-83
2022/09/02 03:41:22;;;;;;;6.17;2.63;;;13.20;37.20;;;;;;5072908;28;20942;-83
2022/09/02 03:43:50;;;;;;;4.80;2.20;;;13.30;36.10;;;;;;5072670;28;21002;-83
2022/09/02 03:46:18;;;;;;;5.70;3.20;;;13.30;35.80;;;;;;5072596;28;20454;-83
2022/09/02 03:48:45;;;;;;;5.70;2.20;;;13.20;36.20;;;;;;5072813;28;20454;-83
2022/09/02 03:51:13;;;;;;;5.47;2.30;;;13.20;36.50;;;;;;5073063;28;20447;-83
2022/09/02 03:53:39;;;;;;;7.17;1.93;;;13.10;37.40;;;;;;5074346;28;20510;-83
2022/09/02 03:56:07;;;;;;;6.40;2.30;;;13.20;39.10;;;;;;5076807;28;20450;-83
2022/09/02 03:58:36;;;;;;;7.00;2.70;;;13.00;41.10;;;;;;5076739;28;20460;-83
2022/09/02 04:01:03;;;;;;;4.93;2.20;;;13.10;42.50;;;;;;5076993;28;20958;-83
2022/09/02 04:03:30;;;;;;;8.40;2.70;;;13.10;41.60;;;;;;5078100;28;20486;-83
2022/09/02 04:05:57;;;;;;;6.00;2.13;;;13.10;40.90;;;;;;5077473;28;20515;-83
2022/09/02 04:08:24;;;;;;;5.30;2.60;;;13.10;40.70;;;;;;5076759;28;20454;-83
2022/09/02 04:10:51;;;;;;;5.20;2.37;;;13.20;40.30;;;;;;5076725;28;20461;-83
2022/09/02 04:13:18;;;;;;;5.80;2.80;;;13.30;38.80;;;;;;5077337;28;21006;-83
2022/09/02 04:15:47;;;;;;;5.60;2.10;;;13.20;40.80;;;;;;5076282;28;20457;-83
2022/09/02 04:18:15;;;;;;;6.40;2.63;;;13.30;41.10;;;;;;5077792;28;20455;-85
2022/09/02 04:20:43;;;;;;;8.40;2.90;;;13.20;44.00;;;;;;5083462;28;20453;-85
2022/09/02 04:23:10;;;;;;;4.73;2.27;;;13.10;43.10;;;;;;5084353;28;20476;-85
2022/09/02 04:25:40;;;;;;;7.93;2.97;;;13.10;43.20;;;;;;5083623;28;20972;-85
2022/09/02 04:28:07;;;;;;;6.47;3.40;;;13.10;43.00;;;;;;5082456;28;20454;-85
2022/09/02 04:30:33;;;;;;;6.97;2.90;;;12.90;45.20;;;;;;5082265;28;20454;-85
2022/09/02 04:33:02;;;;;;;7.87;2.90;;;12.80;46.00;;;;;;5083008;28;20510;-85
2022/09/02 04:35:31;;;;;;;7.47;2.83;;;12.80;46.50;;;;;;5083224;28;20553;-85
2022/09/02 04:37:58;;;;;;;5.90;2.50;;;12.60;46.30;;;;;;5083123;28;20553;-86
2022/09/02 04:40:27;;;;;;;7.40;2.27;;;12.60;46.30;;;;;;5083475;28;20515;-85
2022/09/02 04:43:03;;;;;;;4.83;2.53;;;12.70;46.00;;;;;;5082507;28;20470;-86
2022/09/02 04:45:43;;;;;;;6.00;2.33;;;12.90;46.60;;;;;;5082060;28;20519;-86
2022/09/02 04:48:12;;;;;;;6.20;2.83;;;12.80;46.00;;;;;;5083228;28;20469;-86
2022/09/02 04:50:40;;;;;;;7.80;3.50;;;13.00;46.70;;;;;;5082501;28;20534;-85
2022/09/02 04:53:07;;;;;;;6.50;2.67;;;13.00;48.50;;;;;;5082727;28;20488;-86
2022/09/02 04:55:35;;;;;;;10.40;3.10;;;13.10;46.70;;;;;;5082493;28;20832;-85
2022/09/02 04:58:01;;;;;;;6.60;3.60;;;13.10;44.50;;;;;;5082827;28;20458;-86
2022/09/02 05:00:28;;;;;;;6.07;3.00;;;13.10;44.50;;;;;;5082495;28;20975;-84
2022/09/02 05:02:55;;;;;;;9.37;3.30;;;13.20;44.50;;;;;;5081519;28;20530;-85
2022/09/02 05:05:23;;;;;;;9.70;2.93;;;13.10;44.80;;;;;;5125717;22;20475;-83
2022/09/02 05:07:50;;;;;;;9.40;3.43;;;13.20;45.30;;;;;;5068651;28;20446;-83
2022/09/02 05:10:17;;;;;;;6.50;2.43;;;13.30;44.70;;;;;;5069097;28;20451;-83
2022/09/02 05:12:44;;;;;;;4.70;2.30;;;13.40;43.20;;;;;;5068265;28;20479;-82
2022/09/02 05:15:11;;;;;;;5.00;2.20;;;13.40;45.00;;;;;;5068553;28;20467;-83
2022/09/02 05:17:38;;;;;;;6.23;2.00;;;13.60;45.60;;;;;;5069276;28;20447;-83
2022/09/02 05:20:07;;;;;;;7.13;2.60;;;13.70;41.80;;;;;;5068459;28;20446;-83
2022/09/02 05:22:36;;;;;;;7.30;2.40;;;13.80;40.50;;;;;;5069057;28;20454;-83
2022/09/02 05:25:06;;;;;;;4.50;1.80;;;13.90;38.70;;;;;;5068072;28;20631;-82
2022/09/02 05:27:33;;;;;;;6.33;2.73;;;14.10;38.40;;;;;;5068625;28;20538;-83
2022/09/02 05:30:00;;;;;;;5.30;1.97;;;14.20;41.10;;;;;;5069705;28;20452;-82
2022/09/02 05:32:27;;;;;;;5.97;2.00;;;14.40;41.30;;;;;;5069892;28;20467;-82
2022/09/02 05:34:54;;;;;;;4.93;2.23;;;14.30;39.00;;;;;;5073203;28;20467;-82
2022/09/02 05:37:23;;;;;;;6.90;2.37;;;14.50;39.30;;;;;;5068355;28;20451;-81
2022/09/02 05:39:51;;;;;;;4.57;1.73;;;14.60;39.20;;;;;;5067310;28;20487;-81
2022/09/02 05:42:19;;;;;;;4.10;1.57;;;14.90;32.70;;;;;;5067507;28;20838;-82
2022/09/02 05:44:46;;;;;;;5.43;1.80;;;15.00;30.70;;;;;;5065602;28;20510;-83
2022/09/02 05:47:13;;;;;;;6.10;2.00;;;15.30;29.60;;;;;;5065974;28;20479;-83
2022/09/02 05:49:40;;;;;;;5.13;1.97;;;15.50;29.50;;;;;;5065316;28;20462;-83
2022/09/02 05:52:09;;;;;;;6.63;2.33;;;15.60;27.30;;;;;;5066897;28;20444;-83
2022/09/02 05:54:37;;;;;;;7.93;2.40;;;15.70;27.00;;;;;;5066616;28;20536;-83
2022/09/02 05:57:08;;;;;;;6.37;1.87;;;15.90;27.40;;;;;;5065192;28;20447;-83
2022/09/02 05:59:38;;;;;;;5.40;1.90;;;15.90;27.00;;;;;;5050103;28;20440;-83
2022/09/02 06:02:06;;;;;;;5.73;1.70;;;16.00;27.10;;;;;;5056858;28;20447;-84
2022/09/02 06:04:37;;;;;;;5.40;1.60;;;16.10;27.00;;;;;;5067467;28;20487;-82
2022/09/02 06:07:04;;;;;;;5.13;1.80;;;16.10;26.90;;;;;;5065920;28;20448;-82
2022/09/02 06:09:31;;;;;;;4.70;1.93;;;16.40;26.50;;;;;;5067755;28;20451;-82
2022/09/02 06:11:58;;;;;;;5.70;1.90;;;16.50;25.70;;;;;;5067993;28;20459;-82
2022/09/02 06:14:26;;;;;;;4.43;1.53;;;16.80;24.70;;;;;;5066193;28;20975;-83
2022/09/02 06:16:55;;;;;;;5.90;1.77;;;17.10;23.90;;;;;;5066410;28;20448;-82
2022/09/02 06:19:24;;;;;;;5.90;1.97;;;17.20;23.80;;;;;;5066363;28;20454;-82
2022/09/02 06:21:51;;;;;;;6.10;1.80;;;17.50;21.50;;;;;;5068372;28;20839;-83
2022/09/02 06:24:17;;;;;;;8.00;1.70;;;17.70;21.00;;;;;;5066426;28;20858;-83
2022/09/02 06:26:45;;;;;;;6.57;3.20;;;17.90;19.40;;;;;;5067372;28;20457;-83
2022/09/02 06:29:12;;;;;;;9.30;1.80;;;18.10;20.10;;;;;;5067845;28;20458;-83
2022/09/02 06:31:43;;;;;;;5.83;2.00;;;18.20;18.40;;;;;;5066659;28;20456;-82
2022/09/02 06:34:12;;;;;;;6.27;1.80;;;18.20;17.80;;;;;;5066699;28;20486;-82
2022/09/02 06:36:40;;;;;;;9.30;2.00;;;18.40;17.10;;;;;;5066805;28;20480;-83
2022/09/02 06:39:07;;;;;;;7.90;2.00;;;18.40;16.60;;;;;;5066868;28;20453;-83
2022/09/02 06:41:34;;;;;;;4.63;1.63;;;18.60;16.40;;;;;;5067408;28;20453;-83
2022/09/02 06:44:03;;;;;;;5.70;2.30;;;18.80;15.20;;;;;;5066393;28;20466;-82
2022/09/02 06:46:33;;;;;;;6.17;2.13;;;19.10;14.50;;;;;;5066386;28;20475;-83
2022/09/02 06:49:03;;;;;;;9.97;2.03;;;19.30;13.80;;;;;;5066711;28;20446;-83
2022/09/02 06:51:32;;;;;;;7.47;2.60;;;19.40;12.70;;;;;;5066891;28;20535;-83
2022/09/02 06:53:59;;;;;;;4.70;1.57;;;19.40;13.00;;;;;;5066171;28;20485;-82
2022/09/02 06:56:26;;;;;;;13.07;1.80;;;19.70;12.80;;;;;;5066818;28;20467;-82
2022/09/02 06:58:53;;;;;;;5.23;1.40;;;19.80;12.00;;;;;;5066430;28;20453;-82
2022/09/02 07:01:20;;;;;;;7.23;1.57;;;19.90;12.10;;;;;;5066126;28;20452;-82
2022/09/02 07:06:36;;;;;;;6.83;2.17;;;20.20;9.50;;;;;;5066105;28;20462;-83
2022/09/02 07:09:04;;;;;;;5.20;1.87;;;20.40;10.10;;;;;;5065559;28;20485;-82
2022/09/02 07:11:30;;;;;;;7.60;1.70;;;20.40;9.20;;;;;;5065500;28;20447;-83
2022/09/02 07:14:00;;;;;;;10.50;2.80;;;20.40;9.20;;;;;;5065924;28;21131;-81
2022/09/02 07:16:26;;;;;;;7.23;1.50;;;20.60;9.90;;;;;;5065686;28;20455;-82
2022/09/02 07:18:53;;;;;;;5.00;1.80;;;20.40;8.90;;;;;;5065678;28;20462;-83
2022/09/02 07:21:20;;;;;;;6.50;1.83;;;20.40;9.20;;;;;;5065779;28;20538;-82
2022/09/02 07:23:48;;;;;;;4.50;1.60;;;20.40;9.10;;;;;;5065756;28;20468;-83
2022/09/02 07:26:16;;;;;;;5.60;2.00;;;20.40;9.30;;;;;;5064991;28;20447;-82
2022/09/02 07:28:43;;;;;;;6.53;1.93;;;20.40;9.80;;;;;;5066018;28;20832;-82
2022/09/02 07:31:11;;;;;;;9.07;1.77;;;20.40;10.30;;;;;;5065424;28;20450;-82
2022/09/02 07:33:38;;;;;;;5.77;2.27;;;20.50;9.20;;;;;;5065759;28;20487;-82
2022/09/02 07:36:06;;;;;;;5.93;1.93;;;20.50;9.30;;;;;;5067354;28;20454;-83
2022/09/02 07:38:34;;;;;;;5.90;1.90;;;20.40;9.20;;;;;;5065114;28;20447;-83
2022/09/02 07:41:02;;;;;;;6.10;2.40;;;20.50;9.90;;;;;;5067233;28;20200;-82
2022/09/02 07:43:31;;;;;;;5.50;1.80;;;20.60;9.30;;;;;;5066566;28;20823;-83
2022/09/02 07:45:59;;;;;;;6.40;2.20;;;20.60;8.70;;;;;;5067589;28;20490;-83
2022/09/02 07:48:27;;;;;;;10.37;3.40;;;20.80;9.30;;;;;;5068180;28;20553;-83
2022/09/02 07:50:54;;;;;;;7.30;2.13;;;20.70;8.50;;;;;;5067379;28;20448;-83
2022/09/02 07:53:21;;;;;;;4.90;2.00;;;20.80;8.10;;;;;;5068659;28;20511;-82
2022/09/02 07:55:49;;;;;;;7.27;2.37;;;20.90;7.80;;;;;;5068462;28;20456;-83
2022/09/02 07:58:21;;;;;;;5.87;1.90;;;21.10;8.00;;;;;;5069240;28;20459;-82
2022/09/02 08:00:48;;;;;;;5.53;2.13;;;21.30;6.90;;;;;;5068960;28;20543;-83
2022/09/02 08:03:15;;;;;;;12.87;2.00;;;21.60;7.20;;;;;;5067821;28;20450;-83
2022/09/02 08:05:45;;;;;;;7.90;1.70;;;21.90;5.90;;;;;;5067992;28;20486;-83
2022/09/02 08:08:13;;;;;;;5.27;1.83;;;22.10;4.50;;;;;;5067604;28;20459;-82
2022/09/02 08:10:40;;;;;;;5.43;2.07;;;22.40;3.80;;;;;;5068050;28;20456;-82
2022/09/02 08:13:08;;;;;;;8.30;2.30;;;22.20;3.60;;;;;;5068044;28;20484;-81
2022/09/02 08:15:36;;;;;;;5.27;1.83;;;22.60;3.40;;;;;;5067322;28;20986;-81
2022/09/02 08:18:04;;;;;;;6.50;2.40;;;22.60;2.30;;;;;;5068221;28;20451;-81
2022/09/02 08:20:31;;;;;;;7.70;2.10;;;22.40;1.50;;;;;;5068171;28;20474;-81
2022/09/02 08:22:58;;;;;;;9.60;2.23;;;22.70;1.50;;;;;;5068299;28;20459;-81
2022/09/02 08:25:25;;;;;;;14.40;2.13;;;22.90;1.40;;;;;;5067798;28;20467;-81
2022/09/02 08:27:53;;;;;;;9.70;3.30;;;23.00;1.00;;;;;;5067963;28;20454;-81
2022/09/02 08:30:20;;;;;;;7.20;2.10;;;23.10;1.00;;;;;;5068635;28;20936;-81
2022/09/02 08:32:48;;;;;;;7.47;1.70;;;23.20;1.00;;;;;;5068549;28;20467;-81
2022/09/02 08:35:15;;;;;;;7.03;2.50;;;23.30;1.00;;;;;;5067819;28;20467;-81
2022/09/02 08:37:42;;;;;;;8.80;1.70;;;23.80;1.00;;;;;;5067622;28;20528;-81
2022/09/02 08:40:15;;;;;;;5.90;1.83;;;23.90;1.00;;;;;;5070341;28;20496;-80
2022/09/02 08:42:45;;;;;;;7.17;1.97;;;23.80;1.00;;;;;;5072346;28;20466;-81
2022/09/02 08:45:18;;;;;;;7.37;2.53;;;24.30;1.00;;;;;;5071109;28;21012;-81
2022/09/02 08:47:50;;;;;;;8.43;1.97;;;24.40;1.00;;;;;;5071142;28;20450;-81
2022/09/02 08:50:19;;;;;;;6.70;2.20;;;24.70;1.00;;;;;;5071306;28;20455;-81
2022/09/02 08:52:55;;;;;;;4.60;1.73;;;24.60;1.00;;;;;;5072658;28;20534;-81
2022/09/02 08:55:27;;;;;;;8.87;2.37;;;25.20;1.00;;;;;;5070854;28;20826;-81
2022/09/02 08:57:56;;;;;;;7.10;2.10;;;25.20;1.00;;;;;;5071261;28;20530;-82
2022/09/02 09:00:23;;;;;;;11.13;1.90;;;25.60;1.00;;;;;;5070838;28;20447;-81
2022/09/02 09:03:01;;;;;;;6.27;1.93;;;26.00;1.00;;;;;;5071052;28;20455;-81
2022/09/02 09:05:38;;;;;;;7.53;2.00;;;26.10;1.00;;;;;;5060618;28;20470;-84
2022/09/02 09:08:16;;;;;;;6.80;2.27;;;25.90;1.00;;;;;;5056042;28;20541;-84
2022/09/02 09:10:55;;;;;;;6.80;2.13;;;26.60;1.00;;;;;;5054777;28;20453;-85
2022/09/02 09:13:54;;;;;;;5.27;2.00;;;26.50;1.00;;;;;;5054477;28;20482;-85
2022/09/02 09:16:40;;;;;;;5.37;1.90;;;26.70;1.00;;;;;;5054561;28;20459;-85
2022/09/02 09:19:13;;;;;;;9.73;2.10;;;26.70;1.00;;;;;;5056251;28;20462;-85
2022/09/02 09:21:41;;;;;;;6.53;1.87;;;26.90;1.00;;;;;;5054140;28;20937;-85
2022/09/02 09:24:25;;;;;;;7.93;1.73;;;27.10;1.00;;;;;;5054167;28;20478;-84
2022/09/02 09:26:53;;;;;;;6.80;1.70;;;27.00;1.00;;;;;;5054110;28;20451;-85
2022/09/02 09:29:20;;;;;;;5.50;1.90;;;26.80;1.00;;;;;;5053994;28;20979;-84
2022/09/02 09:31:54;;;;;;;5.17;1.70;;;27.10;1.00;;;;;;5054062;28;20466;-85
2022/09/02 09:34:22;;;;;;;5.70;2.03;;;27.50;1.00;;;;;;5053910;28;20483;-84
2022/09/02 09:36:52;;;;;;;8.10;2.00;;;27.60;1.00;;;;;;5053804;28;20991;-84
2022/09/02 09:39:25;;;;;;;11.30;3.20;;;27.40;1.00;;;;;;5054165;28;20483;-85
2022/09/02 09:41:54;;;;;;;6.57;1.83;;;27.50;1.00;;;;;;5054362;28;20508;-84
2022/09/02 09:44:44;;;;;;;4.50;1.60;;;27.90;1.00;;;;;;5053619;28;21007;-84
2022/09/02 09:47:18;;;;;;;6.40;2.30;;;28.20;1.00;;;;;;5053843;28;20455;-85
2022/09/02 09:49:47;;;;;;;5.90;1.93;;;28.40;1.00;;;;;;5053578;28;20879;-85
2022/09/02 09:52:25;;;;;;;9.37;2.20;;;28.80;1.00;;;;;;5053869;28;20818;-85
2022/09/02 09:55:10;;;;;;;7.10;2.20;;;28.80;1.00;;;;;;5053460;28;20486;-85
2022/09/02 09:57:37;;;;;;;9.50;2.20;;;28.60;1.00;;;;;;5052177;28;20549;-85
2022/09/02 10:00:12;;;;;;;5.10;2.07;;;28.60;1.00;;;;;;5053423;28;20451;-84
2022/09/02 10:02:46;;;;;;;9.53;1.60;;;28.70;1.00;;;;;;5053583;28;20450;-85
2022/09/02 10:05:28;;;;;;;5.97;1.87;;;28.70;1.00;;;;;;5053037;28;20513;-84
2022/09/02 10:07:56;;;;;;;5.00;1.73;;;28.50;1.00;;;;;;5053021;28;20962;-84
2022/09/02 10:10:25;;;;;;;5.03;1.67;;;28.70;1.00;;;;;;5053222;28;20985;-85
2022/09/02 10:12:55;;;;;;;6.00;1.83;;;28.30;1.00;;;;;;5054468;28;20458;-84
2022/09/02 10:15:31;;;;;;;4.50;1.60;;;28.30;1.00;;;;;;5056662;28;20605;-81
2022/09/02 10:18:05;;;;;;;5.73;1.57;;;28.80;1.00;;;;;;5067879;28;20450;-81
2022/09/02 10:20:49;;;;;;;5.30;1.50;;;29.30;1.00;;;;;;5068497;28;20461;-82
2022/09/02 10:23:40;;;;;;;5.50;1.50;;;29.50;1.00;;;;;;5068453;28;20474;-81
2022/09/02 10:26:20;;;;;;;7.37;1.53;;;29.70;1.00;;;;;;5068315;28;20466;-82
2022/09/02 10:29:10;;;;;;;6.50;1.63;;;29.90;1.00;;;;;;5069093;28;20458;-81
2022/09/02 10:31:46;;;;;;;8.93;1.60;;;29.90;1.00;;;;;;5068381;28;20455;-81
2022/09/02 10:34:24;;;;;;;5.00;1.63;;;30.30;1.00;;;;;;5067013;28;20474;-82
2022/09/02 10:37:07;;;;;;;5.33;1.53;;;30.10;1.00;;;;;;5067963;28;20454;-81
2022/09/02 10:39:50;;;;;;;4.90;1.80;;;29.60;1.00;;;;;;5068986;28;20458;-81
2022/09/02 10:42:26;;;;;;;5.00;2.10;;;30.10;1.00;;;;;;5068382;28;20440;-82
2022/09/02 10:45:03;;;;;;;4.73;1.63;;;30.50;1.00;;;;;;5068465;28;20969;-82
2022/09/02 10:47:36;;;;;;;6.47;1.73;;;30.90;1.00;;;;;;5069061;28;20450;-81
2022/09/02 10:50:13;;;;;;;6.63;1.97;;;30.90;1.00;;;;;;5068786;28;20430;-81
2022/09/02 10:52:59;;;;;;;5.07;1.57;;;31.00;1.00;;;;;;5068335;28;20970;-81
2022/09/02 10:55:41;;;;;;;4.53;1.57;;;31.60;1.00;;;;;;5067688;28;20446;-81
2022/09/02 10:58:14;;;;;;;5.70;1.73;;;31.50;1.00;;;;;;5068202;28;20426;-81
2022/09/02 11:00:50;;;;;;;5.87;1.70;;;31.00;1.00;;;;;;5068279;28;20451;-81
2022/09/02 11:03:21;;;;;;;7.17;1.40;;;29.80;1.00;;;;;;5068116;28;20447;-82
2022/09/02 11:05:51;;;;;;;5.40;1.77;;;29.20;1.00;;;;;;5060935;22;20535;-84
2022/09/02 11:08:26;;;;;;;6.23;1.93;;;29.60;1.00;;;;;;5032212;28;20867;-84
2022/09/02 11:11:00;;;;;;;6.30;1.80;;;30.40;1.00;;;;;;5032481;28;20422;-84
2022/09/02 11:13:35;;;;;;;5.33;1.50;;;31.30;1.00;;;;;;5032289;28;20461;-84
2022/09/02 11:16:05;;;;;;;5.27;1.70;;;31.40;1.00;;;;;;5031889;28;20445;-84
2022/09/02 11:18:35;;;;;;;6.00;1.60;;;31.40;1.00;;;;;;5032854;28;20422;-84
2022/09/02 11:21:06;;;;;;;9.30;1.97;;;31.20;1.00;;;;;;5032256;28;20426;-84
2022/09/02 11:23:41;;;;;;;4.80;1.50;;;31.00;1.00;;;;;;5032185;28;20475;-84
2022/09/02 11:26:15;;;;;;;4.93;1.57;;;30.90;1.00;;;;;;5031964;28;20449;-84
2022/09/02 11:28:51;;;;;;;5.60;1.63;;;30.90;1.00;;;;;;5032160;28;20427;-84
2022/09/02 11:31:24;;;;;;;9.57;1.83;;;30.90;1.00;;;;;;5032082;28;20472;-84
2022/09/02 11:33:56;;;;;;;5.60;1.70;;;31.50;1.00;;;;;;5032013;28;20806;-84
2022/09/02 11:36:25;;;;;;;5.23;1.30;;;30.80;1.00;;;;;;5031942;28;20517;-84
2022/09/02 11:38:58;;;;;;;4.30;1.43;;;30.80;1.00;;;;;;5031914;28;20476;-84
2022/09/02 11:41:48;;;;;;;6.63;1.20;;;29.40;1.00;;;;;;5031855;28;20430;-84
2022/09/02 11:44:40;;;;;;;5.87;1.50;;;28.60;1.00;;;;;;5031426;28;20483;-83
2022/09/02 11:47:41;;;;;;;5.60;1.57;;;28.20;1.00;;;;;;5032159;28;20430;-84
2022/09/02 11:50:27;;;;;;;6.20;1.40;;;29.40;1.00;;;;;;4999190;28;20502;-84
2022/09/02 11:53:05;;;;;;;7.63;1.60;;;30.90;1.00;;;;;;5032118;28;20861;-84
2022/09/02 11:55:37;;;;;;;9.20;1.80;;;30.20;1.00;;;;;;5031457;28;20450;-84
2022/09/02 11:58:04;;;;;;;7.80;1.53;;;29.10;1.00;;;;;;5031623;28;20463;-84
2022/09/02 12:00:35;;;;;;;4.47;1.53;;;28.20;1.00;;;;;;5032129;28;20859;-84
2022/09/02 12:03:13;;;;;;;4.37;1.30;;;28.40;1.00;;;;;;5032010;28;20470;-84
2022/09/02 12:06:04;;;;;;;5.03;1.60;;;29.50;1.00;;;;;;5031346;28;20486;-84
2022/09/02 12:09:02;;;;;;;9.30;2.07;;;30.50;1.00;;;;;;5031575;28;20471;-84
2022/09/02 12:11:44;;;;;;;6.20;1.60;;;31.30;1.00;;;;;;5032035;28;20494;-84
2022/09/02 12:14:33;;;;;;;9.30;1.80;;;32.50;1.00;;;;;;5032340;28;20919;-84
2022/09/02 12:17:02;;;;;;;5.30;1.37;;;32.30;1.00;;;;;;5035550;28;20426;-84
2022/09/02 12:19:41;;;;;;;4.80;1.23;;;31.70;1.00;;;;;;5035402;28;20485;-84
2022/09/02 12:22:37;;;;;;;6.20;1.67;;;31.70;1.00;;;;;;5035676;28;20427;-87
2022/09/02 12:25:23;;;;;;;5.70;1.63;;;31.40;1.00;;;;;;5035515;28;20458;-88
2022/09/02 12:27:50;;;;;;;4.60;1.47;;;31.90;1.00;;;;;;5035525;28;20435;-86
2022/09/02 12:31:06;;;;;;;7.70;1.60;;;32.40;1.00;;;;;;5035627;28;20815;-87
2022/09/02 12:33:35;;;;;;;4.70;1.43;;;33.00;1.00;;;;;;5031161;28;20811;-87
2022/09/02 12:36:03;;;;;;;6.57;1.50;;;33.40;1.00;;;;;;5035385;28;20472;-87
2022/09/02 12:38:35;;;;;;;5.77;1.70;;;33.80;1.00;;;;;;5035264;28;20919;-85
2022/09/02 12:41:20;;;;;;;4.53;1.40;;;34.30;1.00;;;;;;5036508;28;20437;-85
2022/09/02 12:43:56;;;;;;;6.00;1.60;;;33.90;1.00;;;;;;5035995;28;20426;-83
2022/09/02 12:46:40;;;;;;;5.23;1.33;;;32.30;1.00;;;;;;5037729;28;20916;-83
2022/09/02 12:49:23;;;;;;;5.00;1.60;;;32.60;1.00;;;;;;5037754;28;20459;-83
2022/09/02 12:51:56;;;;;;;5.67;1.40;;;33.00;1.00;;;;;;5037583;28;20445;-82
2022/09/02 12:54:31;;;;;;;6.50;1.40;;;32.80;1.00;;;;;;5037403;28;20889;-85
2022/09/02 12:56:58;;;;;;;5.37;1.93;;;33.40;1.00;;;;;;5037671;28;20433;-81
2022/09/02 12:59:30;;;;;;;4.90;1.40;;;31.70;1.00;;;;;;5038430;28;20451;-86
2022/09/02 13:02:08;;;;;;;5.83;1.57;;;32.00;1.00;;;;;;5038446;28;20477;-86
2022/09/02 13:04:43;;;;;;;6.27;1.63;;;32.60;1.00;;;;;;5037562;28;20526;-86
2022/09/02 13:07:46;;;;;;;7.67;1.80;;;33.10;1.00;;;;;;5037555;28;20458;-86
2022/09/02 13:10:51;;;;;;;5.67;1.53;;;33.60;1.00;;;;;;5036781;28;20451;-85
2022/09/02 13:13:54;;;;;;;6.23;1.80;;;33.50;1.00;;;;;;5036080;28;20441;-86